地図

経路データ

SID SEASON NUMBER BASIN SUBBASIN NAME ISO_TIME NATURE LAT LON WMO_WIND WMO_PRES WMO_AGENCY TRACK_TYPE DIST2LAND LANDFALL IFLAG USA_AGENCY USA_ATCF_ID USA_LAT USA_LON USA_RECORD USA_STATUS USA_WIND USA_PRES USA_SSHS USA_R34_NE USA_R34_SE USA_R34_SW USA_R34_NW USA_R50_NE USA_R50_SE USA_R50_SW USA_R50_NW USA_R64_NE USA_R64_SE USA_R64_SW USA_R64_NW USA_POCI USA_ROCI USA_RMW USA_EYE TOKYO_LAT TOKYO_LON TOKYO_GRADE TOKYO_WIND TOKYO_PRES TOKYO_R50_DIR TOKYO_R50_LONG TOKYO_R50_SHORT TOKYO_R30_DIR TOKYO_R30_LONG TOKYO_R30_SHORT TOKYO_LAND CMA_LAT CMA_LON CMA_CAT CMA_WIND CMA_PRES HKO_LAT HKO_LON HKO_CAT HKO_WIND HKO_PRES NEWDELHI_LAT NEWDELHI_LON NEWDELHI_GRADE NEWDELHI_WIND NEWDELHI_PRES NEWDELHI_CI NEWDELHI_DP NEWDELHI_POCI REUNION_LAT REUNION_LON REUNION_TYPE REUNION_WIND REUNION_PRES REUNION_TNUM REUNION_CI REUNION_RMW REUNION_R34_NE REUNION_R34_SE REUNION_R34_SW REUNION_R34_NW REUNION_R50_NE REUNION_R50_SE REUNION_R50_SW REUNION_R50_NW REUNION_R64_NE REUNION_R64_SE REUNION_R64_SW REUNION_R64_NW BOM_LAT BOM_LON BOM_TYPE BOM_WIND BOM_PRES BOM_TNUM BOM_CI BOM_RMW BOM_R34_NE BOM_R34_SE BOM_R34_SW BOM_R34_NW BOM_R50_NE BOM_R50_SE BOM_R50_SW BOM_R50_NW BOM_R64_NE BOM_R64_SE BOM_R64_SW BOM_R64_NW BOM_ROCI BOM_POCI BOM_EYE BOM_POS_METHOD BOM_PRES_METHOD NADI_LAT NADI_LON NADI_CAT NADI_WIND NADI_PRES WELLINGTON_LAT WELLINGTON_LON WELLINGTON_WIND WELLINGTON_PRES DS824_LAT DS824_LON DS824_STAGE DS824_WIND DS824_PRES TD9636_LAT TD9636_LON TD9636_STAGE TD9636_WIND TD9636_PRES TD9635_LAT TD9635_LON TD9635_WIND TD9635_PRES TD9635_ROCI NEUMANN_LAT NEUMANN_LON NEUMANN_CLASS NEUMANN_WIND NEUMANN_PRES MLC_LAT MLC_LON MLC_CLASS MLC_WIND MLC_PRES USA_GUST BOM_GUST BOM_GUST_PER REUNION_GUST REUNION_GUST_PER USA_SEAHGT USA_SEARAD_NE USA_SEARAD_SE USA_SEARAD_SW USA_SEARAD_NW STORM_SPEED STORM_DIR
1852001S12077 1852 1 SI MM NOT_NAMED 1852-01-01 06:00:00 NR -12.2000 77.3000 reunion main 2060 2060 _____O________ -1 -12.2000 77.3000 99 9.90000 0 0
1852001S12077 1852 1 SI MM NOT_NAMED 1852-01-01 09:00:00 NR -12.2062 77.3187 main 2060 2060 _____P________ -1 -12.2062 77.3187 99 0 0
1852001S12077 1852 1 SI MM NOT_NAMED 1852-01-01 12:00:00 NR -12.2166 77.3238 main 2060 2060 _____P________ -1 -12.2166 77.3238 99 0 222
1852001S12077 1852 1 SI MM NOT_NAMED 1852-01-01 15:00:00 NR -12.2354 77.3015 main 2060 2060 _____P________ -1 -12.2354 77.3015 99 1 239
1852001S12077 1852 1 SI MM NOT_NAMED 1852-01-01 18:00:00 NR -12.2667 77.2382 main 2073 2073 _____P________ -1 -12.2667 77.2382 99 2 246
1852001S12077 1852 1 SI MM NOT_NAMED 1852-01-01 21:00:00 NR -12.3148 77.1202 main 2075 2075 _____P________ -1 -12.3148 77.1202 99 3 249
1852001S12077 1852 1 SI MM NOT_NAMED 1852-01-02 00:00:00 NR -12.3837 76.9338 main 2090 2090 _____P________ -1 -12.3837 76.9338 99 5 250
1852001S12077 1852 1 SI MM NOT_NAMED 1852-01-02 03:00:00 NR -12.4775 76.6650 main 2106 2106 _____P________ -1 -12.4775 76.6650 99 7 251
1852001S12077 1852 1 SI MM NOT_NAMED 1852-01-02 06:00:00 NR -12.6000 76.3000 reunion main 2126 2107 _____O________ -1 -12.6000 76.3000 99 9.90000 9 251
1852001S12077 1852 1 SI MM NOT_NAMED 1852-01-02 09:00:00 NR -12.7536 75.8297 main 2092 2038 _____P________ -1 -12.7536 75.8297 99 11 252
1852001S12077 1852 1 SI MM NOT_NAMED 1852-01-02 12:00:00 NR -12.9344 75.2652 main 2038 1970 _____P________ -1 -12.9344 75.2652 99 12 252
1852001S12077 1852 1 SI MM NOT_NAMED 1852-01-02 15:00:00 NR -13.1371 74.6224 main 1960 1892 _____P________ -1 -13.1371 74.6224 99 14 252
1852001S12077 1852 1 SI MM NOT_NAMED 1852-01-02 18:00:00 NR -13.3564 73.9175 main 1878 1800 _____P________ -1 -13.3564 73.9175 99 15 252
1852001S12077 1852 1 SI MM NOT_NAMED 1852-01-02 21:00:00 NR -13.5872 73.1666 main 1800 1713 _____P________ -1 -13.5872 73.1666 99 16 253
1852001S12077 1852 1 SI MM NOT_NAMED 1852-01-03 00:00:00 NR -13.8246 72.3859 main 1713 1620 _____P________ -1 -13.8246 72.3859 99 16 253
1852001S12077 1852 1 SI MM NOT_NAMED 1852-01-03 03:00:00 NR -14.0637 71.5916 main 1620 1534 _____P________ -1 -14.0637 71.5916 99 16 253
1852001S12077 1852 1 SI MM NOT_NAMED 1852-01-03 06:00:00 NR -14.3000 70.8000 reunion main 1534 1456 _____O________ -1 -14.3000 70.8000 99 9.90000 15 253
1852001S12077 1852 1 SI MM NOT_NAMED 1852-01-03 09:00:00 NR -14.5102 70.0655 main 1456 1380 _____P________ -1 -14.5102 70.0655 99 15 254
1852001S12077 1852 1 SI MM NOT_NAMED 1852-01-03 12:00:00 NR -14.7204 69.3206 main 1370 1293 _____P________ -1 -14.7204 69.3206 99 15 254
1852001S12077 1852 1 SI MM NOT_NAMED 1852-01-03 15:00:00 NR -14.9310 68.5701 main 1293 1216 _____P________ -1 -14.9310 68.5701 99 15 254
1852001S12077 1852 1 SI MM NOT_NAMED 1852-01-03 18:00:00 NR -15.1421 67.8188 main 1207 1131 _____P________ -1 -15.1421 67.8188 99 15 254
1852001S12077 1852 1 SI MM NOT_NAMED 1852-01-03 21:00:00 NR -15.3541 67.0713 main 1125 1049 _____P________ -1 -15.3541 67.0713 99 15 253
1852001S12077 1852 1 SI MM NOT_NAMED 1852-01-04 00:00:00 NR -15.5675 66.3325 main 1040 964 _____P________ -1 -15.5675 66.3325 99 15 253
1852001S12077 1852 1 SI MM NOT_NAMED 1852-01-04 03:00:00 NR -15.7826 65.6071 main 964 888 _____P________ -1 -15.7826 65.6071 99 14 253
1852001S12077 1852 1 SI MM NOT_NAMED 1852-01-04 06:00:00 NR -16.0000 64.9000 reunion main 888 822 _____O________ -1 -16.0000 64.9000 99 9.90000 14 252
1852001S12077 1852 1 SI MM NOT_NAMED 1852-01-04 09:00:00 NR -16.2101 64.2277 main 813 747 _____P________ -1 -16.2101 64.2277 99 13 252
1852001S12077 1852 1 SI MM NOT_NAMED 1852-01-04 12:00:00 NR -16.4221 63.5730 main 747 682 _____P________ -1 -16.4221 63.5730 99 13 251
1852001S12077 1852 1 SI MM NOT_NAMED 1852-01-04 15:00:00 NR -16.6372 62.9320 main 674 609 _____P________ -1 -16.6372 62.9320 99 13 250
1852001S12077 1852 1 SI MM NOT_NAMED 1852-01-04 18:00:00 NR -16.8566 62.3009 main 602 538 _____P________ -1 -16.8566 62.3009 99 13 250
1852001S12077 1852 1 SI MM NOT_NAMED 1852-01-04 21:00:00 NR -17.0814 61.6761 main 538 475 _____P________ -1 -17.0814 61.6761 99 13 249
1852001S12077 1852 1 SI MM NOT_NAMED 1852-01-05 00:00:00 NR -17.3129 61.0535 main 475 414 _____P________ -1 -17.3129 61.0535 99 13 248
1852001S12077 1852 1 SI MM NOT_NAMED 1852-01-05 03:00:00 NR -17.5521 60.4295 main 398 339 _____P________ -1 -17.5521 60.4295 99 13 248
1852001S12077 1852 1 SI MM NOT_NAMED 1852-01-05 06:00:00 NR -17.8000 59.8000 reunion main 339 282 _____O________ -1 -17.8000 59.8000 99 9.90000 13 248
1852001S12077 1852 1 SI MM NOT_NAMED 1852-01-05 09:00:00 NR -18.0442 59.1362 main 277 218 _____P________ -1 -18.0442 59.1362 99 14 249
1852001S12077 1852 1 SI MM NOT_NAMED 1852-01-05 12:00:00 NR -18.2957 58.4671 main 218 179 _____P________ -1 -18.2957 58.4671 99 14 248
1852001S12077 1852 1 SI MM NOT_NAMED 1852-01-05 15:00:00 NR -18.5553 57.7955 main 168 146 _____P________ -1 -18.5553 57.7955 99 14 247
1852001S12077 1852 1 SI MM NOT_NAMED 1852-01-05 18:00:00 NR -18.8237 57.1242 main 151 143 _____P________ -1 -18.8237 57.1242 99 14 247
1852001S12077 1852 1 SI MM NOT_NAMED 1852-01-05 21:00:00 NR -19.1015 56.4561 main 153 153 _____P________ -1 -19.1015 56.4561 99 14 246
1852001S12077 1852 1 SI MM NOT_NAMED 1852-01-06 00:00:00 NR -19.3896 55.7942 main 179 145 _____P________ -1 -19.3896 55.7942 99 14 245
1852001S12077 1852 1 SI MM NOT_NAMED 1852-01-06 03:00:00 NR -19.6888 55.1412 main 146 133 _____P________ -1 -19.6888 55.1412 99 14 243
1852001S12077 1852 1 SI MM NOT_NAMED 1852-01-06 06:00:00 NR -20.0000 54.5000 reunion main 139 137 _____O________ -1 -20.0000 54.5000 99 9.90000 14 244
1852001S12077 1852 1 SI MM NOT_NAMED 1852-01-06 09:00:00 NR -20.2920 53.8158 main 170 170 _____P________ -1 -20.2920 53.8158 99 14 245
1852001S12077 1852 1 SI MM NOT_NAMED 1852-01-06 12:00:00 NR -20.5933 53.1349 main 225 225 _____P________ -1 -20.5933 53.1349 99 14 244
1852001S12077 1852 1 SI MM NOT_NAMED 1852-01-06 15:00:00 NR -20.9075 52.4676 main 281 281 _____P________ -1 -20.9075 52.4676 99 14 242
1852001S12077 1852 1 SI MM NOT_NAMED 1852-01-06 18:00:00 NR -21.2381 51.8243 main 339 297 _____P________ -1 -21.2381 51.8243 99 14 240
1852001S12077 1852 1 SI MM NOT_NAMED 1852-01-06 21:00:00 NR -21.5887 51.2153 main 297 254 _____P________ -1 -21.5887 51.2153 99 13 236
1852001S12077 1852 1 SI MM NOT_NAMED 1852-01-07 00:00:00 NR -21.9632 50.6512 main 256 213 _____P________ -1 -21.9632 50.6512 99 13 232
1852001S12077 1852 1 SI MM NOT_NAMED 1852-01-07 03:00:00 NR -22.3656 50.1425 main 206 182 _____P________ -1 -22.3656 50.1425 99 12 226
1852001S12077 1852 1 SI MM NOT_NAMED 1852-01-07 06:00:00 NR -22.8000 49.7000 reunion main 187 159 _____O________ -1 -22.8000 49.7000 99 9.90000 12 218
1852001S12077 1852 1 SI MM NOT_NAMED 1852-01-07 09:00:00 NR -23.3335 49.3166 main 159 139 _____P________ -1 -23.3335 49.3166 99 13 210
1852001S12077 1852 1 SI MM NOT_NAMED 1852-01-07 12:00:00 NR -23.9094 48.9967 main 143 133 _____P________ -1 -23.9094 48.9967 99 13 204
1852001S12077 1852 1 SI MM NOT_NAMED 1852-01-07 15:00:00 NR -24.5090 48.7347 main 133 133 _____P________ -1 -24.5090 48.7347 99 13 200
1852001S12077 1852 1 SI MM NOT_NAMED 1852-01-07 18:00:00 NR -25.1136 48.5250 main 138 138 _____P________ -1 -25.1136 48.5250 99 12 196
1852001S12077 1852 1 SI MM NOT_NAMED 1852-01-07 21:00:00 NR -25.7041 48.3621 main 152 149 _____P________ -1 -25.7041 48.3621 99 12 193
1852001S12077 1852 1 SI MM NOT_NAMED 1852-01-08 00:00:00 NR -26.2614 48.2406 main 180 180 _____P________ -1 -26.2614 48.2406 99 11 190
1852001S12077 1852 1 SI MM NOT_NAMED 1852-01-08 03:00:00 NR -26.7664 48.1551 main 224 219 _____P________ -1 -26.7664 48.1551 99 10 188
1852001S12077 1852 1 SI MM NOT_NAMED 1852-01-08 06:00:00 NR -27.2000 48.1000 reunion main 258 258 _____O________ -1 -27.2000 48.1000 99 9.90000 7 188
1852001S12077 1852 1 SI MM NOT_NAMED 1852-01-08 09:00:00 NR -27.5037 48.0346 main 283 283 _____P________ -1 -27.5037 48.0346 99 5 188
1852001S12077 1852 1 SI MM NOT_NAMED 1852-01-08 12:00:00 NR -27.7410 48.0078 main 303 303 _____P________ -1 -27.7410 48.0078 99 4 0
1852001S12077 1852 1 SI MM NOT_NAMED 1852-01-08 15:00:00 NR -27.9230 48.0134 main 324 324 _____P________ -1 -27.9230 48.0134 99 3 175
1852001S12077 1852 1 SI MM NOT_NAMED 1852-01-08 18:00:00 NR -28.0611 48.0449 main 345 345 _____P________ -1 -28.0611 48.0449 99 3 164
1852001S12077 1852 1 SI MM NOT_NAMED 1852-01-08 21:00:00 NR -28.1667 48.0958 main 359 359 _____P________ -1 -28.1667 48.0958 99 2 151
1852001S12077 1852 1 SI MM NOT_NAMED 1852-01-09 00:00:00 NR -28.2508 48.1597 main 373 373 _____P________ -1 -28.2508 48.1597 99 2 143
1852001S12077 1852 1 SI MM NOT_NAMED 1852-01-09 03:00:00 NR -28.3249 48.2299 main 373 373 _____P________ -1 -28.3249 48.2299 99 2 140
1852001S12077 1852 1 SI MM NOT_NAMED 1852-01-09 06:00:00 NR -28.4000 48.3000 reunion main 387 387 _____O________ -1 -28.4000 48.3000 99 9.90000 2 144
1852001S12077 1852 1 SI MM NOT_NAMED 1852-01-09 09:00:00 NR -28.4854 48.3646 main 401 401 _____P________ -1 -28.4854 48.3646 99 2 148
1852001S12077 1852 1 SI MM NOT_NAMED 1852-01-09 12:00:00 NR -28.5817 48.4233 main 411 411 _____P________ -1 -28.5817 48.4233 99 2 154
1852001S12077 1852 1 SI MM NOT_NAMED 1852-01-09 15:00:00 NR -28.6872 48.4770 main 425 425 _____P________ -1 -28.6872 48.4770 99 2 157
1852001S12077 1852 1 SI MM NOT_NAMED 1852-01-09 18:00:00 NR -28.8005 48.5265 main 435 435 _____P________ -1 -28.8005 48.5265 99 2 160
1852001S12077 1852 1 SI MM NOT_NAMED 1852-01-09 21:00:00 NR -28.9200 48.5727 main 449 449 _____P________ -1 -28.9200 48.5727 99 3 162
1852001S12077 1852 1 SI MM NOT_NAMED 1852-01-10 00:00:00 NR -29.0441 48.6165 main 460 460 _____P________ -1 -29.0441 48.6165 99 3 163
1852001S12077 1852 1 SI MM NOT_NAMED 1852-01-10 03:00:00 NR -29.1713 48.6586 main 484 484 _____P________ -1 -29.1713 48.6586 99 3 165
1852001S12077 1852 1 SI MM NOT_NAMED 1852-01-10 06:00:00 NR -29.3000 48.7000 reunion main 494 _____O________ -1 -29.3000 48.7000 99 9.90000 3 160

IBTrACS Databaseについて

本データベースは、米国NOAAが公開する1842年以降の世界の熱帯低気圧のベストトラックデータアーカイブInternational Best Track Archive for Climate Stewardship (IBTrACS)を、ウェブで閲覧しやすい形式に変換したものです。

最終更新日:2021-12-08